sensor_id;sensor_type;location;lat;lon;timestamp;P1;durP1;ratioP1;P2;durP2;ratioP2
35444;SDS011;21562;49.476;6.086;2023-11-21T00:00:12;7.97;;;4.15;;
35444;SDS011;21562;49.476;6.086;2023-11-21T00:02:40;7.28;;;4.10;;
35444;SDS011;21562;49.476;6.086;2023-11-21T00:05:09;6.15;;;3.58;;
35444;SDS011;21562;49.476;6.086;2023-11-21T00:07:37;7.40;;;3.95;;
35444;SDS011;21562;49.476;6.086;2023-11-21T00:10:03;8.93;;;3.97;;
35444;SDS011;21562;49.476;6.086;2023-11-21T00:12:30;9.32;;;3.97;;
35444;SDS011;21562;49.476;6.086;2023-11-21T00:14:56;11.13;;;4.43;;
35444;SDS011;21562;49.476;6.086;2023-11-21T00:17:22;7.95;;;3.45;;
35444;SDS011;21562;49.476;6.086;2023-11-21T00:19:48;7.03;;;3.58;;
35444;SDS011;21562;49.476;6.086;2023-11-21T00:22:14;8.43;;;3.28;;
35444;SDS011;21562;49.476;6.086;2023-11-21T00:24:41;5.90;;;3.03;;
35444;SDS011;21562;49.476;6.086;2023-11-21T00:27:06;5.50;;;2.97;;
35444;SDS011;21562;49.476;6.086;2023-11-21T00:29:32;6.72;;;2.80;;
35444;SDS011;21562;49.476;6.086;2023-11-21T00:31:57;4.78;;;2.67;;
35444;SDS011;21562;49.476;6.086;2023-11-21T00:34:23;7.85;;;2.70;;
35444;SDS011;21562;49.476;6.086;2023-11-21T00:36:49;5.25;;;2.63;;
35444;SDS011;21562;49.476;6.086;2023-11-21T00:39:14;4.45;;;2.80;;
35444;SDS011;21562;49.476;6.086;2023-11-21T00:41:40;6.55;;;3.13;;
35444;SDS011;21562;49.476;6.086;2023-11-21T00:44:07;6.15;;;3.60;;
35444;SDS011;21562;49.476;6.086;2023-11-21T00:46:32;5.65;;;3.20;;
35444;SDS011;21562;49.476;6.086;2023-11-21T00:48:58;10.82;;;3.80;;
35444;SDS011;21562;49.476;6.086;2023-11-21T00:51:23;6.00;;;3.70;;
35444;SDS011;21562;49.476;6.086;2023-11-21T00:53:49;5.93;;;3.30;;
35444;SDS011;21562;49.476;6.086;2023-11-21T00:56:15;6.43;;;3.15;;
35444;SDS011;21562;49.476;6.086;2023-11-21T00:58:41;4.53;;;3.05;;
35444;SDS011;21562;49.476;6.086;2023-11-21T01:01:14;5.10;;;3.30;;
35444;SDS011;21562;49.476;6.086;2023-11-21T01:03:40;4.53;;;3.28;;
35444;SDS011;21562;49.476;6.086;2023-11-21T01:06:05;5.60;;;3.75;;
35444;SDS011;21562;49.476;6.086;2023-11-21T01:08:32;5.20;;;3.70;;
35444;SDS011;21562;49.476;6.086;2023-11-21T01:10:57;5.40;;;3.67;;
35444;SDS011;21562;49.476;6.086;2023-11-21T01:13:23;7.53;;;3.53;;
35444;SDS011;21562;49.476;6.086;2023-11-21T01:15:52;6.40;;;3.30;;
35444;SDS011;21562;49.476;6.086;2023-11-21T01:18:18;6.20;;;3.40;;
35444;SDS011;21562;49.476;6.086;2023-11-21T01:20:43;6.57;;;3.28;;
35444;SDS011;21562;49.476;6.086;2023-11-21T01:23:11;4.80;;;3.17;;
35444;SDS011;21562;49.476;6.086;2023-11-21T01:25:38;4.90;;;3.22;;
35444;SDS011;21562;49.476;6.086;2023-11-21T01:28:03;6.45;;;3.35;;
35444;SDS011;21562;49.476;6.086;2023-11-21T01:30:29;6.85;;;3.40;;
35444;SDS011;21562;49.476;6.086;2023-11-21T01:32:54;5.93;;;3.15;;
35444;SDS011;21562;49.476;6.086;2023-11-21T01:35:20;5.75;;;3.20;;
35444;SDS011;21562;49.476;6.086;2023-11-21T01:37:45;5.10;;;3.25;;
35444;SDS011;21562;49.476;6.086;2023-11-21T01:40:13;3.25;;;2.70;;
35444;SDS011;21562;49.476;6.086;2023-11-21T01:42:39;6.10;;;2.95;;
35444;SDS011;21562;49.476;6.086;2023-11-21T01:45:05;3.75;;;3.10;;
35444;SDS011;21562;49.476;6.086;2023-11-21T01:47:33;4.35;;;3.10;;
35444;SDS011;21562;49.476;6.086;2023-11-21T01:49:59;7.22;;;3.35;;
35444;SDS011;21562;49.476;6.086;2023-11-21T01:52:25;6.15;;;3.05;;
35444;SDS011;21562;49.476;6.086;2023-11-21T01:54:52;4.15;;;2.92;;
35444;SDS011;21562;49.476;6.086;2023-11-21T01:57:19;4.22;;;3.15;;
35444;SDS011;21562;49.476;6.086;2023-11-21T01:59:45;6.47;;;3.13;;
35444;SDS011;21562;49.476;6.086;2023-11-21T02:02:13;3.65;;;2.83;;
35444;SDS011;21562;49.476;6.086;2023-11-21T02:04:39;5.13;;;3.30;;
35444;SDS011;21562;49.476;6.086;2023-11-21T02:07:05;5.43;;;3.47;;
35444;SDS011;21562;49.476;6.086;2023-11-21T02:09:31;7.47;;;4.47;;
35444;SDS011;21562;49.476;6.086;2023-11-21T02:11:58;5.10;;;3.42;;
35444;SDS011;21562;49.476;6.086;2023-11-21T02:14:25;7.10;;;4.13;;
35444;SDS011;21562;49.476;6.086;2023-11-21T02:16:52;7.88;;;4.45;;
35444;SDS011;21562;49.476;6.086;2023-11-21T02:19:19;9.23;;;4.80;;
35444;SDS011;21562;49.476;6.086;2023-11-21T02:21:49;7.68;;;4.47;;
35444;SDS011;21562;49.476;6.086;2023-11-21T02:24:18;6.80;;;4.55;;
35444;SDS011;21562;49.476;6.086;2023-11-21T02:26:44;7.55;;;5.10;;
35444;SDS011;21562;49.476;6.086;2023-11-21T02:29:11;9.70;;;4.82;;
35444;SDS011;21562;49.476;6.086;2023-11-21T02:31:38;9.27;;;4.38;;
35444;SDS011;21562;49.476;6.086;2023-11-21T02:34:12;6.65;;;4.30;;
35444;SDS011;21562;49.476;6.086;2023-11-21T02:36:42;7.72;;;4.43;;
35444;SDS011;21562;49.476;6.086;2023-11-21T02:39:09;6.72;;;3.95;;
35444;SDS011;21562;49.476;6.086;2023-11-21T02:41:38;9.10;;;3.95;;
35444;SDS011;21562;49.476;6.086;2023-11-21T02:44:04;8.30;;;4.63;;
35444;SDS011;21562;49.476;6.086;2023-11-21T02:46:31;8.65;;;3.95;;
35444;SDS011;21562;49.476;6.086;2023-11-21T02:49:03;6.18;;;3.70;;
35444;SDS011;21562;49.476;6.086;2023-11-21T02:51:31;9.15;;;4.85;;
35444;SDS011;21562;49.476;6.086;2023-11-21T02:53:57;6.75;;;4.22;;
35444;SDS011;21562;49.476;6.086;2023-11-21T02:56:27;8.45;;;4.55;;
35444;SDS011;21562;49.476;6.086;2023-11-21T02:58:54;6.63;;;3.97;;
35444;SDS011;21562;49.476;6.086;2023-11-21T03:01:21;8.70;;;4.50;;
35444;SDS011;21562;49.476;6.086;2023-11-21T03:03:46;8.98;;;4.60;;
35444;SDS011;21562;49.476;6.086;2023-11-21T03:06:16;8.00;;;4.93;;
35444;SDS011;21562;49.476;6.086;2023-11-21T03:08:42;9.52;;;5.00;;
35444;SDS011;21562;49.476;6.086;2023-11-21T03:11:08;8.52;;;5.30;;
35444;SDS011;21562;49.476;6.086;2023-11-21T03:13:33;11.90;;;6.20;;
35444;SDS011;21562;49.476;6.086;2023-11-21T03:15:59;11.88;;;5.82;;
35444;SDS011;21562;49.476;6.086;2023-11-21T03:18:25;13.88;;;6.20;;
35444;SDS011;21562;49.476;6.086;2023-11-21T03:20:51;15.23;;;8.15;;
35444;SDS011;21562;49.476;6.086;2023-11-21T03:23:18;14.52;;;6.28;;
35444;SDS011;21562;49.476;6.086;2023-11-21T03:25:43;14.35;;;6.60;;
35444;SDS011;21562;49.476;6.086;2023-11-21T03:28:09;11.85;;;6.47;;
35444;SDS011;21562;49.476;6.086;2023-11-21T03:30:35;13.00;;;6.80;;
35444;SDS011;21562;49.476;6.086;2023-11-21T03:33:00;11.88;;;6.25;;
35444;SDS011;21562;49.476;6.086;2023-11-21T03:35:26;13.07;;;6.25;;
35444;SDS011;21562;49.476;6.086;2023-11-21T03:37:52;10.40;;;5.97;;
35444;SDS011;21562;49.476;6.086;2023-11-21T03:40:18;10.77;;;6.28;;
35444;SDS011;21562;49.476;6.086;2023-11-21T03:42:45;12.02;;;6.13;;
35444;SDS011;21562;49.476;6.086;2023-11-21T03:45:11;11.60;;;5.90;;
35444;SDS011;21562;49.476;6.086;2023-11-21T03:47:37;12.57;;;6.15;;
35444;SDS011;21562;49.476;6.086;2023-11-21T03:50:03;8.45;;;5.72;;
35444;SDS011;21562;49.476;6.086;2023-11-21T03:52:29;11.35;;;6.72;;
35444;SDS011;21562;49.476;6.086;2023-11-21T03:54:54;10.48;;;5.90;;
35444;SDS011;21562;49.476;6.086;2023-11-21T03:57:20;12.27;;;5.70;;
35444;SDS011;21562;49.476;6.086;2023-11-21T03:59:46;9.02;;;5.53;;
35444;SDS011;21562;49.476;6.086;2023-11-21T04:02:12;12.05;;;6.05;;
35444;SDS011;21562;49.476;6.086;2023-11-21T04:04:37;14.98;;;5.80;;
35444;SDS011;21562;49.476;6.086;2023-11-21T04:07:03;13.40;;;5.63;;
35444;SDS011;21562;49.476;6.086;2023-11-21T04:09:29;9.70;;;5.55;;
35444;SDS011;21562;49.476;6.086;2023-11-21T04:11:55;11.30;;;5.32;;
35444;SDS011;21562;49.476;6.086;2023-11-21T04:14:21;9.85;;;5.20;;
35444;SDS011;21562;49.476;6.086;2023-11-21T04:16:47;8.57;;;4.93;;
35444;SDS011;21562;49.476;6.086;2023-11-21T04:19:13;9.50;;;4.90;;
35444;SDS011;21562;49.476;6.086;2023-11-21T04:21:40;10.68;;;5.03;;
35444;SDS011;21562;49.476;6.086;2023-11-21T04:24:06;10.13;;;5.45;;
35444;SDS011;21562;49.476;6.086;2023-11-21T04:26:32;9.63;;;5.50;;
35444;SDS011;21562;49.476;6.086;2023-11-21T04:28:57;8.77;;;5.03;;
35444;SDS011;21562;49.476;6.086;2023-11-21T04:31:23;7.22;;;4.47;;
35444;SDS011;21562;49.476;6.086;2023-11-21T04:33:49;9.68;;;5.40;;
35444;SDS011;21562;49.476;6.086;2023-11-21T04:36:15;11.35;;;5.65;;
35444;SDS011;21562;49.476;6.086;2023-11-21T04:38:40;12.00;;;6.03;;
35444;SDS011;21562;49.476;6.086;2023-11-21T04:41:06;6.93;;;4.45;;
35444;SDS011;21562;49.476;6.086;2023-11-21T04:43:32;10.40;;;5.57;;
35444;SDS011;21562;49.476;6.086;2023-11-21T04:45:58;9.80;;;5.53;;
35444;SDS011;21562;49.476;6.086;2023-11-21T04:48:23;11.02;;;5.05;;
35444;SDS011;21562;49.476;6.086;2023-11-21T04:50:49;13.45;;;6.38;;
35444;SDS011;21562;49.476;6.086;2023-11-21T04:53:14;11.40;;;5.53;;
35444;SDS011;21562;49.476;6.086;2023-11-21T04:55:40;13.13;;;5.35;;
35444;SDS011;21562;49.476;6.086;2023-11-21T04:58:06;8.93;;;4.95;;
35444;SDS011;21562;49.476;6.086;2023-11-21T05:00:33;8.82;;;5.05;;
35444;SDS011;21562;49.476;6.086;2023-11-21T05:02:59;8.70;;;5.57;;
35444;SDS011;21562;49.476;6.086;2023-11-21T05:05:26;7.35;;;4.80;;
35444;SDS011;21562;49.476;6.086;2023-11-21T05:07:52;8.82;;;4.65;;
35444;SDS011;21562;49.476;6.086;2023-11-21T05:10:18;6.38;;;4.38;;
35444;SDS011;21562;49.476;6.086;2023-11-21T05:12:44;6.97;;;4.53;;
35444;SDS011;21562;49.476;6.086;2023-11-21T05:15:13;6.85;;;4.10;;
35444;SDS011;21562;49.476;6.086;2023-11-21T05:17:40;8.13;;;4.13;;
35444;SDS011;21562;49.476;6.086;2023-11-21T05:20:15;6.55;;;4.10;;
35444;SDS011;21562;49.476;6.086;2023-11-21T05:22:48;7.77;;;3.83;;
35444;SDS011;21562;49.476;6.086;2023-11-21T05:25:15;7.28;;;3.75;;
35444;SDS011;21562;49.476;6.086;2023-11-21T05:27:43;11.00;;;3.70;;
35444;SDS011;21562;49.476;6.086;2023-11-21T05:30:09;5.95;;;3.75;;
35444;SDS011;21562;49.476;6.086;2023-11-21T05:32:37;9.77;;;3.35;;
35444;SDS011;21562;49.476;6.086;2023-11-21T05:35:03;5.75;;;3.90;;
35444;SDS011;21562;49.476;6.086;2023-11-21T05:37:34;7.47;;;4.32;;
35444;SDS011;21562;49.476;6.086;2023-11-21T05:40:00;8.05;;;4.20;;
35444;SDS011;21562;49.476;6.086;2023-11-21T05:42:30;7.95;;;3.90;;
35444;SDS011;21562;49.476;6.086;2023-11-21T05:44:57;10.15;;;4.00;;
35444;SDS011;21562;49.476;6.086;2023-11-21T05:47:24;5.93;;;3.58;;
35444;SDS011;21562;49.476;6.086;2023-11-21T05:49:51;7.32;;;3.83;;
35444;SDS011;21562;49.476;6.086;2023-11-21T05:52:17;8.25;;;4.50;;
35444;SDS011;21562;49.476;6.086;2023-11-21T05:54:43;6.03;;;3.17;;
35444;SDS011;21562;49.476;6.086;2023-11-21T05:57:09;5.22;;;3.20;;
35444;SDS011;21562;49.476;6.086;2023-11-21T05:59:34;7.13;;;4.00;;
35444;SDS011;21562;49.476;6.086;2023-11-21T06:02:00;9.40;;;4.55;;
35444;SDS011;21562;49.476;6.086;2023-11-21T06:04:27;6.88;;;3.85;;
35444;SDS011;21562;49.476;6.086;2023-11-21T06:06:52;7.70;;;3.92;;
35444;SDS011;21562;49.476;6.086;2023-11-21T06:09:18;10.77;;;4.43;;
35444;SDS011;21562;49.476;6.086;2023-11-21T06:11:44;9.20;;;4.35;;
35444;SDS011;21562;49.476;6.086;2023-11-21T06:14:10;8.15;;;4.78;;
35444;SDS011;21562;49.476;6.086;2023-11-21T06:16:36;10.00;;;5.40;;
35444;SDS011;21562;49.476;6.086;2023-11-21T06:19:01;8.05;;;4.90;;
35444;SDS011;21562;49.476;6.086;2023-11-21T06:21:27;10.18;;;5.22;;
35444;SDS011;21562;49.476;6.086;2023-11-21T06:23:53;9.52;;;5.05;;
35444;SDS011;21562;49.476;6.086;2023-11-21T06:26:21;9.20;;;5.68;;
35444;SDS011;21562;49.476;6.086;2023-11-21T06:28:47;9.73;;;5.57;;
35444;SDS011;21562;49.476;6.086;2023-11-21T06:31:16;10.52;;;5.82;;
35444;SDS011;21562;49.476;6.086;2023-11-21T06:33:42;10.18;;;5.40;;
35444;SDS011;21562;49.476;6.086;2023-11-21T06:36:08;10.70;;;5.55;;
35444;SDS011;21562;49.476;6.086;2023-11-21T06:38:36;11.52;;;5.70;;
35444;SDS011;21562;49.476;6.086;2023-11-21T06:41:02;10.23;;;5.40;;
35444;SDS011;21562;49.476;6.086;2023-11-21T06:43:29;9.00;;;5.00;;
35444;SDS011;21562;49.476;6.086;2023-11-21T06:45:56;10.77;;;5.75;;
35444;SDS011;21562;49.476;6.086;2023-11-21T06:48:22;12.70;;;5.18;;
35444;SDS011;21562;49.476;6.086;2023-11-21T06:50:48;7.63;;;4.75;;
35444;SDS011;21562;49.476;6.086;2023-11-21T06:53:13;10.88;;;5.10;;
35444;SDS011;21562;49.476;6.086;2023-11-21T06:55:40;12.25;;;4.90;;
35444;SDS011;21562;49.476;6.086;2023-11-21T06:58:05;11.10;;;5.88;;
35444;SDS011;21562;49.476;6.086;2023-11-21T07:00:31;9.18;;;5.22;;
35444;SDS011;21562;49.476;6.086;2023-11-21T07:02:57;13.25;;;5.82;;
35444;SDS011;21562;49.476;6.086;2023-11-21T07:05:22;11.05;;;5.78;;
35444;SDS011;21562;49.476;6.086;2023-11-21T07:07:48;9.10;;;5.47;;
35444;SDS011;21562;49.476;6.086;2023-11-21T07:10:15;11.25;;;6.00;;
35444;SDS011;21562;49.476;6.086;2023-11-21T07:12:40;11.05;;;5.25;;
35444;SDS011;21562;49.476;6.086;2023-11-21T07:15:06;12.27;;;6.22;;
35444;SDS011;21562;49.476;6.086;2023-11-21T07:17:37;12.52;;;6.22;;
35444;SDS011;21562;49.476;6.086;2023-11-21T07:20:02;12.93;;;6.32;;
35444;SDS011;21562;49.476;6.086;2023-11-21T07:22:29;14.52;;;5.80;;
35444;SDS011;21562;49.476;6.086;2023-11-21T07:24:55;12.07;;;6.00;;
35444;SDS011;21562;49.476;6.086;2023-11-21T07:27:23;14.10;;;5.60;;
35444;SDS011;21562;49.476;6.086;2023-11-21T07:29:49;12.32;;;5.72;;
35444;SDS011;21562;49.476;6.086;2023-11-21T07:32:15;13.48;;;6.45;;
35444;SDS011;21562;49.476;6.086;2023-11-21T07:34:41;9.27;;;5.68;;
35444;SDS011;21562;49.476;6.086;2023-11-21T07:37:07;14.27;;;6.18;;
35444;SDS011;21562;49.476;6.086;2023-11-21T07:39:35;12.07;;;6.07;;
35444;SDS011;21562;49.476;6.086;2023-11-21T07:42:07;14.55;;;6.57;;
35444;SDS011;21562;49.476;6.086;2023-11-21T07:44:32;14.73;;;6.05;;
35444;SDS011;21562;49.476;6.086;2023-11-21T07:46:58;14.77;;;6.47;;
35444;SDS011;21562;49.476;6.086;2023-11-21T07:49:24;15.10;;;7.10;;
35444;SDS011;21562;49.476;6.086;2023-11-21T07:51:51;13.70;;;6.43;;
35444;SDS011;21562;49.476;6.086;2023-11-21T07:54:17;13.95;;;7.10;;
35444;SDS011;21562;49.476;6.086;2023-11-21T07:56:43;13.98;;;6.38;;
35444;SDS011;21562;49.476;6.086;2023-11-21T07:59:09;12.43;;;6.95;;
35444;SDS011;21562;49.476;6.086;2023-11-21T08:01:34;13.27;;;6.43;;
35444;SDS011;21562;49.476;6.086;2023-11-21T08:04:00;12.10;;;6.30;;
35444;SDS011;21562;49.476;6.086;2023-11-21T08:06:31;16.10;;;6.43;;
35444;SDS011;21562;49.476;6.086;2023-11-21T08:08:58;11.00;;;6.43;;
35444;SDS011;21562;49.476;6.086;2023-11-21T08:11:24;11.75;;;6.15;;
35444;SDS011;21562;49.476;6.086;2023-11-21T08:13:49;13.25;;;6.15;;
35444;SDS011;21562;49.476;6.086;2023-11-21T08:16:15;13.70;;;7.05;;
35444;SDS011;21562;49.476;6.086;2023-11-21T08:18:42;13.73;;;6.32;;
35444;SDS011;21562;49.476;6.086;2023-11-21T08:21:07;12.25;;;6.30;;
35444;SDS011;21562;49.476;6.086;2023-11-21T08:23:33;13.32;;;6.32;;
35444;SDS011;21562;49.476;6.086;2023-11-21T08:26:00;14.10;;;6.30;;
35444;SDS011;21562;49.476;6.086;2023-11-21T08:28:28;10.57;;;6.35;;
35444;SDS011;21562;49.476;6.086;2023-11-21T08:30:53;14.52;;;7.53;;
35444;SDS011;21562;49.476;6.086;2023-11-21T08:33:19;15.32;;;7.10;;
35444;SDS011;21562;49.476;6.086;2023-11-21T08:35:45;13.57;;;6.65;;
35444;SDS011;21562;49.476;6.086;2023-11-21T08:38:11;9.60;;;5.82;;
35444;SDS011;21562;49.476;6.086;2023-11-21T08:40:37;14.45;;;5.63;;
35444;SDS011;21562;49.476;6.086;2023-11-21T08:43:03;15.02;;;6.70;;
35444;SDS011;21562;49.476;6.086;2023-11-21T08:45:33;12.80;;;6.47;;
35444;SDS011;21562;49.476;6.086;2023-11-21T08:48:02;15.73;;;7.95;;
35444;SDS011;21562;49.476;6.086;2023-11-21T08:50:28;15.25;;;6.25;;
35444;SDS011;21562;49.476;6.086;2023-11-21T08:52:54;17.48;;;7.15;;
35444;SDS011;21562;49.476;6.086;2023-11-21T08:55:19;11.52;;;6.38;;
35444;SDS011;21562;49.476;6.086;2023-11-21T08:57:45;12.80;;;6.28;;
35444;SDS011;21562;49.476;6.086;2023-11-21T09:00:13;12.75;;;6.25;;
35444;SDS011;21562;49.476;6.086;2023-11-21T09:02:41;13.93;;;6.70;;
35444;SDS011;21562;49.476;6.086;2023-11-21T09:05:10;17.83;;;6.85;;
35444;SDS011;21562;49.476;6.086;2023-11-21T09:07:37;14.93;;;7.40;;
35444;SDS011;21562;49.476;6.086;2023-11-21T09:10:06;14.38;;;6.57;;
35444;SDS011;21562;49.476;6.086;2023-11-21T09:12:32;13.98;;;6.70;;
35444;SDS011;21562;49.476;6.086;2023-11-21T09:15:00;14.05;;;6.88;;
35444;SDS011;21562;49.476;6.086;2023-11-21T09:17:29;14.43;;;6.75;;
35444;SDS011;21562;49.476;6.086;2023-11-21T09:19:55;17.58;;;6.95;;
35444;SDS011;21562;49.476;6.086;2023-11-21T09:22:22;14.85;;;6.75;;
35444;SDS011;21562;49.476;6.086;2023-11-21T09:24:49;14.20;;;6.38;;
35444;SDS011;21562;49.476;6.086;2023-11-21T09:27:15;11.93;;;5.43;;
35444;SDS011;21562;49.476;6.086;2023-11-21T09:29:43;18.88;;;7.07;;
35444;SDS011;21562;49.476;6.086;2023-11-21T09:32:09;12.25;;;6.60;;
35444;SDS011;21562;49.476;6.086;2023-11-21T09:34:37;10.82;;;5.60;;
35444;SDS011;21562;49.476;6.086;2023-11-21T09:37:04;16.27;;;7.35;;
35444;SDS011;21562;49.476;6.086;2023-11-21T09:39:31;13.52;;;6.43;;
35444;SDS011;21562;49.476;6.086;2023-11-21T09:42:13;16.08;;;7.45;;
35444;SDS011;21562;49.476;6.086;2023-11-21T09:47:16;16.15;;;7.05;;
35444;SDS011;21562;49.476;6.086;2023-11-21T09:49:44;13.00;;;6.43;;
35444;SDS011;21562;49.476;6.086;2023-11-21T09:52:27;12.90;;;6.78;;
35444;SDS011;21562;49.476;6.086;2023-11-21T09:54:53;17.33;;;6.75;;
35444;SDS011;21562;49.476;6.086;2023-11-21T09:57:22;11.75;;;6.22;;
35444;SDS011;21562;49.476;6.086;2023-11-21T09:59:52;15.65;;;7.13;;
35444;SDS011;21562;49.476;6.086;2023-11-21T10:02:27;15.73;;;6.60;;
35444;SDS011;21562;49.476;6.086;2023-11-21T10:04:55;11.88;;;6.43;;
35444;SDS011;21562;49.476;6.086;2023-11-21T10:07:21;11.32;;;6.43;;
35444;SDS011;21562;49.476;6.086;2023-11-21T10:09:48;14.23;;;6.40;;
35444;SDS011;21562;49.476;6.086;2023-11-21T10:12:16;10.68;;;6.60;;
35444;SDS011;21562;49.476;6.086;2023-11-21T10:14:42;17.63;;;6.20;;
35444;SDS011;21562;49.476;6.086;2023-11-21T10:17:12;14.32;;;5.97;;
35444;SDS011;21562;49.476;6.086;2023-11-21T10:19:41;13.95;;;6.13;;
35444;SDS011;21562;49.476;6.086;2023-11-21T10:22:07;13.50;;;6.60;;
35444;SDS011;21562;49.476;6.086;2023-11-21T10:24:33;19.08;;;7.93;;
35444;SDS011;21562;49.476;6.086;2023-11-21T10:27:00;17.65;;;7.47;;
35444;SDS011;21562;49.476;6.086;2023-11-21T10:29:28;16.90;;;6.88;;
35444;SDS011;21562;49.476;6.086;2023-11-21T10:31:55;15.02;;;6.15;;
35444;SDS011;21562;49.476;6.086;2023-11-21T10:34:23;10.38;;;5.68;;
35444;SDS011;21562;49.476;6.086;2023-11-21T10:36:49;12.18;;;5.65;;
35444;SDS011;21562;49.476;6.086;2023-11-21T10:39:19;10.80;;;5.75;;
35444;SDS011;21562;49.476;6.086;2023-11-21T10:41:46;11.32;;;5.85;;
35444;SDS011;21562;49.476;6.086;2023-11-21T10:44:16;15.35;;;6.45;;
35444;SDS011;21562;49.476;6.086;2023-11-21T10:46:52;15.05;;;5.93;;
35444;SDS011;21562;49.476;6.086;2023-11-21T10:49:25;23.50;;;7.25;;
35444;SDS011;21562;49.476;6.086;2023-11-21T10:51:54;9.82;;;5.28;;
35444;SDS011;21562;49.476;6.086;2023-11-21T10:54:21;13.15;;;5.60;;
35444;SDS011;21562;49.476;6.086;2023-11-21T10:56:49;13.68;;;5.68;;
35444;SDS011;21562;49.476;6.086;2023-11-21T10:59:16;13.52;;;5.20;;
35444;SDS011;21562;49.476;6.086;2023-11-21T11:01:42;10.18;;;4.47;;
35444;SDS011;21562;49.476;6.086;2023-11-21T11:04:11;9.57;;;4.95;;
35444;SDS011;21562;49.476;6.086;2023-11-21T11:06:44;12.20;;;5.05;;
35444;SDS011;21562;49.476;6.086;2023-11-21T11:09:15;11.63;;;4.68;;
35444;SDS011;21562;49.476;6.086;2023-11-21T11:11:42;9.30;;;4.22;;
35444;SDS011;21562;49.476;6.086;2023-11-21T11:14:12;10.45;;;4.68;;
35444;SDS011;21562;49.476;6.086;2023-11-21T11:16:39;9.30;;;4.53;;
35444;SDS011;21562;49.476;6.086;2023-11-21T11:19:08;11.82;;;4.70;;
35444;SDS011;21562;49.476;6.086;2023-11-21T11:22:00;10.38;;;4.63;;
35444;SDS011;21562;49.476;6.086;2023-11-21T11:27:32;6.70;;;4.18;;
35444;SDS011;21562;49.476;6.086;2023-11-21T11:35:46;8.95;;;4.07;;
35444;SDS011;21562;49.476;6.086;2023-11-21T11:38:33;11.35;;;3.90;;
35444;SDS011;21562;49.476;6.086;2023-11-21T11:41:04;9.65;;;4.25;;
35444;SDS011;21562;49.476;6.086;2023-11-21T11:43:30;11.15;;;3.88;;
35444;SDS011;21562;49.476;6.086;2023-11-21T11:46:09;10.73;;;4.60;;
35444;SDS011;21562;49.476;6.086;2023-11-21T11:48:39;10.07;;;4.60;;
35444;SDS011;21562;49.476;6.086;2023-11-21T11:51:14;9.13;;;3.90;;
35444;SDS011;21562;49.476;6.086;2023-11-21T11:53:45;5.85;;;3.45;;
35444;SDS011;21562;49.476;6.086;2023-11-21T11:56:35;12.18;;;3.72;;
35444;SDS011;21562;49.476;6.086;2023-11-21T11:59:02;11.00;;;4.35;;
35444;SDS011;21562;49.476;6.086;2023-11-21T12:01:29;10.23;;;4.22;;
35444;SDS011;21562;49.476;6.086;2023-11-21T12:06:51;8.25;;;3.90;;
35444;SDS011;21562;49.476;6.086;2023-11-21T12:09:18;8.57;;;3.88;;
35444;SDS011;21562;49.476;6.086;2023-11-21T12:11:46;9.07;;;4.10;;
35444;SDS011;21562;49.476;6.086;2023-11-21T12:14:16;11.38;;;3.88;;
35444;SDS011;21562;49.476;6.086;2023-11-21T12:16:42;6.82;;;3.78;;
35444;SDS011;21562;49.476;6.086;2023-11-21T12:19:12;8.98;;;3.88;;
35444;SDS011;21562;49.476;6.086;2023-11-21T12:21:37;8.60;;;3.63;;
35444;SDS011;21562;49.476;6.086;2023-11-21T12:24:06;11.68;;;4.57;;
35444;SDS011;21562;49.476;6.086;2023-11-21T12:26:34;11.15;;;4.00;;
35444;SDS011;21562;49.476;6.086;2023-11-21T12:29:01;9.70;;;3.33;;
35444;SDS011;21562;49.476;6.086;2023-11-21T12:31:29;9.18;;;3.85;;
35444;SDS011;21562;49.476;6.086;2023-11-21T12:33:55;9.00;;;3.88;;
35444;SDS011;21562;49.476;6.086;2023-11-21T12:36:21;8.70;;;3.63;;
35444;SDS011;21562;49.476;6.086;2023-11-21T12:38:47;7.65;;;4.07;;
35444;SDS011;21562;49.476;6.086;2023-11-21T12:41:12;9.35;;;3.70;;
35444;SDS011;21562;49.476;6.086;2023-11-21T12:43:40;7.60;;;3.10;;
35444;SDS011;21562;49.476;6.086;2023-11-21T12:46:06;9.73;;;3.35;;
35444;SDS011;21562;49.476;6.086;2023-11-21T12:48:39;8.15;;;3.83;;
35444;SDS011;21562;49.476;6.086;2023-11-21T12:51:09;7.50;;;3.17;;
35444;SDS011;21562;49.476;6.086;2023-11-21T12:53:43;14.50;;;4.22;;
35444;SDS011;21562;49.476;6.086;2023-11-21T12:56:10;9.60;;;3.58;;
35444;SDS011;21562;49.476;6.086;2023-11-21T12:58:39;6.10;;;3.33;;
35444;SDS011;21562;49.476;6.086;2023-11-21T13:01:10;10.32;;;3.38;;
35444;SDS011;21562;49.476;6.086;2023-11-21T13:03:37;12.43;;;3.95;;
35444;SDS011;21562;49.476;6.086;2023-11-21T13:06:05;10.93;;;3.90;;
35444;SDS011;21562;49.476;6.086;2023-11-21T13:08:33;6.25;;;3.15;;
35444;SDS011;21562;49.476;6.086;2023-11-21T13:10:58;11.02;;;3.53;;
35444;SDS011;21562;49.476;6.086;2023-11-21T13:13:25;9.50;;;3.85;;
35444;SDS011;21562;49.476;6.086;2023-11-21T13:15:54;11.77;;;4.03;;
35444;SDS011;21562;49.476;6.086;2023-11-21T13:18:29;12.82;;;3.92;;
35444;SDS011;21562;49.476;6.086;2023-11-21T13:20:56;11.75;;;3.60;;
35444;SDS011;21562;49.476;6.086;2023-11-21T13:23:24;12.02;;;4.00;;
35444;SDS011;21562;49.476;6.086;2023-11-21T13:25:50;7.95;;;3.40;;
35444;SDS011;21562;49.476;6.086;2023-11-21T13:28:16;8.32;;;3.08;;
35444;SDS011;21562;49.476;6.086;2023-11-21T13:30:49;14.40;;;3.80;;
35444;SDS011;21562;49.476;6.086;2023-11-21T13:33:17;7.25;;;3.22;;
35444;SDS011;21562;49.476;6.086;2023-11-21T13:35:46;9.80;;;4.15;;
35444;SDS011;21562;49.476;6.086;2023-11-21T13:38:16;7.45;;;3.75;;
35444;SDS011;21562;49.476;6.086;2023-11-21T13:40:47;7.20;;;3.78;;
35444;SDS011;21562;49.476;6.086;2023-11-21T13:43:16;10.50;;;3.67;;
35444;SDS011;21562;49.476;6.086;2023-11-21T13:45:44;7.13;;;3.40;;
35444;SDS011;21562;49.476;6.086;2023-11-21T13:48:11;7.07;;;3.55;;
35444;SDS011;21562;49.476;6.086;2023-11-21T13:50:47;11.38;;;4.38;;
35444;SDS011;21562;49.476;6.086;2023-11-21T13:53:33;12.77;;;3.53;;
35444;SDS011;21562;49.476;6.086;2023-11-21T13:56:02;17.00;;;4.13;;
35444;SDS011;21562;49.476;6.086;2023-11-21T13:58:28;10.98;;;3.40;;
35444;SDS011;21562;49.476;6.086;2023-11-21T14:01:06;8.48;;;3.78;;
35444;SDS011;21562;49.476;6.086;2023-11-21T14:03:49;13.63;;;5.95;;
35444;SDS011;21562;49.476;6.086;2023-11-21T14:06:17;6.97;;;3.60;;
35444;SDS011;21562;49.476;6.086;2023-11-21T14:08:49;10.95;;;3.72;;
35444;SDS011;21562;49.476;6.086;2023-11-21T14:11:15;7.38;;;3.30;;
35444;SDS011;21562;49.476;6.086;2023-11-21T14:13:45;8.52;;;3.90;;
35444;SDS011;21562;49.476;6.086;2023-11-21T14:16:13;10.52;;;3.47;;
35444;SDS011;21562;49.476;6.086;2023-11-21T14:18:42;7.63;;;3.00;;
35444;SDS011;21562;49.476;6.086;2023-11-21T14:21:22;11.77;;;3.35;;
35444;SDS011;21562;49.476;6.086;2023-11-21T14:23:48;8.52;;;3.25;;
35444;SDS011;21562;49.476;6.086;2023-11-21T14:26:14;7.25;;;2.83;;
35444;SDS011;21562;49.476;6.086;2023-11-21T14:28:41;8.98;;;3.83;;
35444;SDS011;21562;49.476;6.086;2023-11-21T14:31:07;12.45;;;3.80;;
35444;SDS011;21562;49.476;6.086;2023-11-21T14:33:38;10.77;;;3.60;;
35444;SDS011;21562;49.476;6.086;2023-11-21T14:36:04;7.53;;;3.08;;
35444;SDS011;21562;49.476;6.086;2023-11-21T14:38:33;13.35;;;4.35;;
35444;SDS011;21562;49.476;6.086;2023-11-21T14:40:58;9.73;;;3.20;;
35444;SDS011;21562;49.476;6.086;2023-11-21T14:43:24;10.60;;;2.75;;
35444;SDS011;21562;49.476;6.086;2023-11-21T14:45:50;8.38;;;2.78;;
35444;SDS011;21562;49.476;6.086;2023-11-21T14:48:16;9.27;;;3.20;;
35444;SDS011;21562;49.476;6.086;2023-11-21T14:50:51;8.85;;;3.42;;
35444;SDS011;21562;49.476;6.086;2023-11-21T14:53:29;6.32;;;2.97;;
35444;SDS011;21562;49.476;6.086;2023-11-21T14:56:33;11.88;;;3.35;;